sensor_id;sensor_type;location;lat;lon;timestamp;P1;durP1;ratioP1;P2;durP2;ratioP2
10381;SDS011;11635;53.636;10.120;2023-03-01T00:01:06;10.05;;;6.75;;
10381;SDS011;11635;53.636;10.120;2023-03-01T00:03:32;8.90;;;6.65;;
10381;SDS011;11635;53.636;10.120;2023-03-01T00:05:59;12.45;;;7.32;;
10381;SDS011;11635;53.636;10.120;2023-03-01T00:08:26;12.02;;;7.63;;
10381;SDS011;11635;53.636;10.120;2023-03-01T00:10:59;8.60;;;6.43;;
10381;SDS011;11635;53.636;10.120;2023-03-01T00:13:27;8.52;;;6.45;;
10381;SDS011;11635;53.636;10.120;2023-03-01T00:15:54;9.45;;;6.60;;
10381;SDS011;11635;53.636;10.120;2023-03-01T00:18:21;11.32;;;7.03;;
10381;SDS011;11635;53.636;10.120;2023-03-01T00:20:49;8.32;;;6.10;;
10381;SDS011;11635;53.636;10.120;2023-03-01T00:23:15;8.68;;;6.28;;
10381;SDS011;11635;53.636;10.120;2023-03-01T00:25:42;7.32;;;6.13;;
10381;SDS011;11635;53.636;10.120;2023-03-01T00:28:09;10.60;;;6.90;;
10381;SDS011;11635;53.636;10.120;2023-03-01T00:30:36;8.20;;;6.68;;
10381;SDS011;11635;53.636;10.120;2023-03-01T00:33:03;8.82;;;6.75;;
10381;SDS011;11635;53.636;10.120;2023-03-01T00:35:31;11.00;;;6.82;;
10381;SDS011;11635;53.636;10.120;2023-03-01T00:37:59;9.23;;;6.30;;
10381;SDS011;11635;53.636;10.120;2023-03-01T00:40:25;11.15;;;7.07;;
10381;SDS011;11635;53.636;10.120;2023-03-01T00:42:55;9.48;;;7.07;;
10381;SDS011;11635;53.636;10.120;2023-03-01T00:45:21;9.18;;;6.63;;
10381;SDS011;11635;53.636;10.120;2023-03-01T00:47:50;10.30;;;7.68;;
10381;SDS011;11635;53.636;10.120;2023-03-01T00:50:17;11.95;;;7.45;;
10381;SDS011;11635;53.636;10.120;2023-03-01T00:52:44;10.65;;;7.25;;
10381;SDS011;11635;53.636;10.120;2023-03-01T00:55:10;11.02;;;7.18;;
10381;SDS011;11635;53.636;10.120;2023-03-01T00:57:37;10.98;;;7.85;;
10381;SDS011;11635;53.636;10.120;2023-03-01T01:00:04;11.30;;;6.90;;
10381;SDS011;11635;53.636;10.120;2023-03-01T01:02:31;14.45;;;7.50;;
10381;SDS011;11635;53.636;10.120;2023-03-01T01:05:00;12.10;;;7.70;;
10381;SDS011;11635;53.636;10.120;2023-03-01T01:07:26;11.07;;;7.22;;
10381;SDS011;11635;53.636;10.120;2023-03-01T01:09:53;10.57;;;7.63;;
10381;SDS011;11635;53.636;10.120;2023-03-01T01:12:19;12.68;;;7.07;;
10381;SDS011;11635;53.636;10.120;2023-03-01T01:14:46;11.50;;;7.10;;
10381;SDS011;11635;53.636;10.120;2023-03-01T01:17:12;9.52;;;6.50;;
10381;SDS011;11635;53.636;10.120;2023-03-01T01:19:38;9.23;;;6.50;;
10381;SDS011;11635;53.636;10.120;2023-03-01T01:22:06;10.55;;;6.88;;
10381;SDS011;11635;53.636;10.120;2023-03-01T01:24:33;10.77;;;7.38;;
10381;SDS011;11635;53.636;10.120;2023-03-01T01:26:59;11.88;;;7.45;;
10381;SDS011;11635;53.636;10.120;2023-03-01T01:29:26;11.43;;;7.70;;
10381;SDS011;11635;53.636;10.120;2023-03-01T01:31:52;12.38;;;7.25;;
10381;SDS011;11635;53.636;10.120;2023-03-01T01:34:19;10.50;;;7.65;;
10381;SDS011;11635;53.636;10.120;2023-03-01T01:36:47;11.57;;;7.22;;
10381;SDS011;11635;53.636;10.120;2023-03-01T01:39:15;11.07;;;7.35;;
10381;SDS011;11635;53.636;10.120;2023-03-01T01:41:41;11.75;;;8.00;;
10381;SDS011;11635;53.636;10.120;2023-03-01T01:44:16;12.88;;;8.15;;
10381;SDS011;11635;53.636;10.120;2023-03-01T01:46:43;11.30;;;7.35;;
10381;SDS011;11635;53.636;10.120;2023-03-01T01:49:13;13.90;;;8.43;;
10381;SDS011;11635;53.636;10.120;2023-03-01T01:51:44;16.05;;;8.00;;
10381;SDS011;11635;53.636;10.120;2023-03-01T01:54:15;12.38;;;7.35;;
10381;SDS011;11635;53.636;10.120;2023-03-01T01:56:43;6.68;;;5.53;;
10381;SDS011;11635;53.636;10.120;2023-03-01T01:59:10;8.80;;;6.70;;
10381;SDS011;11635;53.636;10.120;2023-03-01T02:01:37;12.82;;;7.35;;
10381;SDS011;11635;53.636;10.120;2023-03-01T02:04:04;8.73;;;6.90;;
10381;SDS011;11635;53.636;10.120;2023-03-01T02:06:32;13.07;;;8.38;;
10381;SDS011;11635;53.636;10.120;2023-03-01T02:09:00;10.73;;;7.18;;
10381;SDS011;11635;53.636;10.120;2023-03-01T02:11:30;9.75;;;7.18;;
10381;SDS011;11635;53.636;10.120;2023-03-01T02:13:57;13.77;;;8.57;;
10381;SDS011;11635;53.636;10.120;2023-03-01T02:16:23;10.93;;;8.15;;
10381;SDS011;11635;53.636;10.120;2023-03-01T02:18:51;13.23;;;8.75;;
10381;SDS011;11635;53.636;10.120;2023-03-01T02:21:22;11.10;;;8.23;;
10381;SDS011;11635;53.636;10.120;2023-03-01T02:23:50;11.27;;;8.07;;
10381;SDS011;11635;53.636;10.120;2023-03-01T02:26:19;13.02;;;8.50;;
10381;SDS011;11635;53.636;10.120;2023-03-01T02:28:48;12.80;;;8.18;;
10381;SDS011;11635;53.636;10.120;2023-03-01T02:31:15;11.68;;;7.97;;
10381;SDS011;11635;53.636;10.120;2023-03-01T02:33:59;11.45;;;8.10;;
10381;SDS011;11635;53.636;10.120;2023-03-01T02:36:30;11.70;;;8.52;;
10381;SDS011;11635;53.636;10.120;2023-03-01T02:38:58;13.25;;;8.20;;
10381;SDS011;11635;53.636;10.120;2023-03-01T02:41:26;10.60;;;8.02;;
10381;SDS011;11635;53.636;10.120;2023-03-01T02:43:55;12.60;;;8.82;;
10381;SDS011;11635;53.636;10.120;2023-03-01T02:46:22;15.75;;;8.52;;
10381;SDS011;11635;53.636;10.120;2023-03-01T02:48:50;11.02;;;8.43;;
10381;SDS011;11635;53.636;10.120;2023-03-01T02:51:28;14.93;;;7.65;;
10381;SDS011;11635;53.636;10.120;2023-03-01T02:54:01;11.23;;;8.13;;
10381;SDS011;11635;53.636;10.120;2023-03-01T02:56:30;9.93;;;8.23;;
10381;SDS011;11635;53.636;10.120;2023-03-01T02:58:58;15.00;;;7.93;;
10381;SDS011;11635;53.636;10.120;2023-03-01T03:01:26;13.75;;;8.88;;
10381;SDS011;11635;53.636;10.120;2023-03-01T03:04:02;12.07;;;8.40;;
10381;SDS011;11635;53.636;10.120;2023-03-01T03:06:29;13.60;;;8.18;;
10381;SDS011;11635;53.636;10.120;2023-03-01T03:08:55;13.10;;;8.07;;
10381;SDS011;11635;53.636;10.120;2023-03-01T03:11:21;10.38;;;7.97;;
10381;SDS011;11635;53.636;10.120;2023-03-01T03:13:48;13.85;;;7.93;;
10381;SDS011;11635;53.636;10.120;2023-03-01T03:16:16;14.10;;;8.13;;
10381;SDS011;11635;53.636;10.120;2023-03-01T03:18:42;10.93;;;8.13;;
10381;SDS011;11635;53.636;10.120;2023-03-01T03:21:09;11.20;;;8.80;;
10381;SDS011;11635;53.636;10.120;2023-03-01T03:23:36;11.30;;;8.63;;
10381;SDS011;11635;53.636;10.120;2023-03-01T03:26:02;14.25;;;8.73;;
10381;SDS011;11635;53.636;10.120;2023-03-01T03:28:29;10.93;;;8.10;;
10381;SDS011;11635;53.636;10.120;2023-03-01T03:30:56;12.65;;;7.85;;
10381;SDS011;11635;53.636;10.120;2023-03-01T03:33:24;12.45;;;8.57;;
10381;SDS011;11635;53.636;10.120;2023-03-01T03:35:51;15.43;;;8.50;;
10381;SDS011;11635;53.636;10.120;2023-03-01T03:38:18;12.20;;;8.30;;
10381;SDS011;11635;53.636;10.120;2023-03-01T03:40:47;12.15;;;8.45;;
10381;SDS011;11635;53.636;10.120;2023-03-01T03:43:14;13.40;;;8.38;;
10381;SDS011;11635;53.636;10.120;2023-03-01T03:45:43;15.48;;;9.68;;
10381;SDS011;11635;53.636;10.120;2023-03-01T03:48:09;22.05;;;9.30;;
10381;SDS011;11635;53.636;10.120;2023-03-01T03:50:37;12.23;;;8.10;;
10381;SDS011;11635;53.636;10.120;2023-03-01T03:53:05;11.18;;;8.68;;
10381;SDS011;11635;53.636;10.120;2023-03-01T03:55:32;11.45;;;8.32;;
10381;SDS011;11635;53.636;10.120;2023-03-01T03:57:59;14.20;;;9.05;;
10381;SDS011;11635;53.636;10.120;2023-03-01T04:00:27;12.10;;;8.45;;
10381;SDS011;11635;53.636;10.120;2023-03-01T04:02:54;9.77;;;7.70;;
10381;SDS011;11635;53.636;10.120;2023-03-01T04:05:21;13.57;;;8.02;;
10381;SDS011;11635;53.636;10.120;2023-03-01T04:07:49;11.93;;;8.25;;
10381;SDS011;11635;53.636;10.120;2023-03-01T04:10:26;11.45;;;8.55;;
10381;SDS011;11635;53.636;10.120;2023-03-01T04:12:52;15.60;;;8.98;;
10381;SDS011;11635;53.636;10.120;2023-03-01T04:15:21;11.90;;;8.30;;
10381;SDS011;11635;53.636;10.120;2023-03-01T04:17:49;10.85;;;7.82;;
10381;SDS011;11635;53.636;10.120;2023-03-01T04:20:17;12.57;;;8.73;;
10381;SDS011;11635;53.636;10.120;2023-03-01T04:22:51;12.15;;;8.60;;
10381;SDS011;11635;53.636;10.120;2023-03-01T04:25:18;16.17;;;9.90;;
10381;SDS011;11635;53.636;10.120;2023-03-01T04:27:44;15.52;;;9.95;;
10381;SDS011;11635;53.636;10.120;2023-03-01T04:30:11;16.10;;;9.40;;
10381;SDS011;11635;53.636;10.120;2023-03-01T04:32:37;14.65;;;8.75;;
10381;SDS011;11635;53.636;10.120;2023-03-01T04:35:04;13.18;;;9.10;;
10381;SDS011;11635;53.636;10.120;2023-03-01T04:37:30;12.82;;;8.98;;
10381;SDS011;11635;53.636;10.120;2023-03-01T04:39:58;12.77;;;8.65;;
10381;SDS011;11635;53.636;10.120;2023-03-01T04:42:24;13.68;;;9.23;;
10381;SDS011;11635;53.636;10.120;2023-03-01T04:44:51;14.48;;;9.02;;
10381;SDS011;11635;53.636;10.120;2023-03-01T04:47:18;15.80;;;9.50;;
10381;SDS011;11635;53.636;10.120;2023-03-01T04:49:44;14.75;;;9.35;;
10381;SDS011;11635;53.636;10.120;2023-03-01T04:52:11;16.55;;;10.10;;
10381;SDS011;11635;53.636;10.120;2023-03-01T04:54:37;14.15;;;10.20;;
10381;SDS011;11635;53.636;10.120;2023-03-01T04:57:05;12.73;;;9.60;;
10381;SDS011;11635;53.636;10.120;2023-03-01T04:59:32;13.63;;;9.15;;
10381;SDS011;11635;53.636;10.120;2023-03-01T05:01:58;14.05;;;8.98;;
10381;SDS011;11635;53.636;10.120;2023-03-01T05:04:25;10.57;;;8.35;;
10381;SDS011;11635;53.636;10.120;2023-03-01T05:06:52;15.95;;;9.32;;
10381;SDS011;11635;53.636;10.120;2023-03-01T05:09:18;17.15;;;9.10;;
10381;SDS011;11635;53.636;10.120;2023-03-01T05:11:45;12.48;;;8.30;;
10381;SDS011;11635;53.636;10.120;2023-03-01T05:14:13;12.32;;;9.30;;
10381;SDS011;11635;53.636;10.120;2023-03-01T05:16:39;14.45;;;8.93;;
10381;SDS011;11635;53.636;10.120;2023-03-01T05:19:05;15.82;;;8.88;;
10381;SDS011;11635;53.636;10.120;2023-03-01T05:21:36;13.55;;;8.95;;
10381;SDS011;11635;53.636;10.120;2023-03-01T05:24:23;11.27;;;8.73;;
10381;SDS011;11635;53.636;10.120;2023-03-01T05:26:49;12.05;;;9.40;;
10381;SDS011;11635;53.636;10.120;2023-03-01T05:29:18;13.88;;;9.27;;
10381;SDS011;11635;53.636;10.120;2023-03-01T05:31:50;14.30;;;9.05;;
10381;SDS011;11635;53.636;10.120;2023-03-01T05:34:17;13.48;;;8.80;;
10381;SDS011;11635;53.636;10.120;2023-03-01T05:36:44;15.70;;;9.52;;
10381;SDS011;11635;53.636;10.120;2023-03-01T05:39:10;14.77;;;9.32;;
10381;SDS011;11635;53.636;10.120;2023-03-01T05:41:37;14.60;;;9.32;;
10381;SDS011;11635;53.636;10.120;2023-03-01T05:44:05;13.60;;;9.43;;
10381;SDS011;11635;53.636;10.120;2023-03-01T05:46:34;13.18;;;9.80;;
10381;SDS011;11635;53.636;10.120;2023-03-01T05:49:00;11.88;;;8.93;;
10381;SDS011;11635;53.636;10.120;2023-03-01T05:51:27;13.77;;;9.30;;
10381;SDS011;11635;53.636;10.120;2023-03-01T05:53:54;16.23;;;9.68;;
10381;SDS011;11635;53.636;10.120;2023-03-01T05:56:21;13.73;;;9.88;;
10381;SDS011;11635;53.636;10.120;2023-03-01T05:58:48;12.18;;;9.07;;
10381;SDS011;11635;53.636;10.120;2023-03-01T06:01:15;14.50;;;9.02;;
10381;SDS011;11635;53.636;10.120;2023-03-01T06:03:43;15.40;;;9.43;;
10381;SDS011;11635;53.636;10.120;2023-03-01T06:06:10;13.02;;;9.32;;
10381;SDS011;11635;53.636;10.120;2023-03-01T06:08:37;14.25;;;9.20;;
10381;SDS011;11635;53.636;10.120;2023-03-01T06:11:03;12.45;;;9.73;;
10381;SDS011;11635;53.636;10.120;2023-03-01T06:13:30;15.70;;;9.43;;
10381;SDS011;11635;53.636;10.120;2023-03-01T06:15:56;14.65;;;8.75;;
10381;SDS011;11635;53.636;10.120;2023-03-01T06:18:24;12.40;;;8.85;;
10381;SDS011;11635;53.636;10.120;2023-03-01T06:20:54;14.07;;;10.20;;
10381;SDS011;11635;53.636;10.120;2023-03-01T06:23:21;13.18;;;9.30;;
10381;SDS011;11635;53.636;10.120;2023-03-01T06:25:48;12.10;;;8.57;;
10381;SDS011;11635;53.636;10.120;2023-03-01T06:28:15;10.63;;;8.38;;
10381;SDS011;11635;53.636;10.120;2023-03-01T06:30:44;14.27;;;9.52;;
10381;SDS011;11635;53.636;10.120;2023-03-01T06:33:23;16.67;;;10.63;;
10381;SDS011;11635;53.636;10.120;2023-03-01T06:35:56;14.27;;;9.68;;
10381;SDS011;11635;53.636;10.120;2023-03-01T06:38:22;16.92;;;11.15;;
10381;SDS011;11635;53.636;10.120;2023-03-01T06:40:51;16.30;;;10.27;;
10381;SDS011;11635;53.636;10.120;2023-03-01T06:43:18;20.13;;;9.80;;
10381;SDS011;11635;53.636;10.120;2023-03-01T06:45:44;13.43;;;9.43;;
10381;SDS011;11635;53.636;10.120;2023-03-01T06:48:11;13.68;;;9.77;;
10381;SDS011;11635;53.636;10.120;2023-03-01T06:50:37;15.55;;;10.43;;
10381;SDS011;11635;53.636;10.120;2023-03-01T06:53:06;13.85;;;10.52;;
10381;SDS011;11635;53.636;10.120;2023-03-01T06:55:33;12.90;;;9.90;;
10381;SDS011;11635;53.636;10.120;2023-03-01T06:58:04;18.17;;;10.35;;
10381;SDS011;11635;53.636;10.120;2023-03-01T07:00:32;14.63;;;9.68;;
10381;SDS011;11635;53.636;10.120;2023-03-01T07:03:02;17.42;;;10.07;;
10381;SDS011;11635;53.636;10.120;2023-03-01T07:05:39;16.45;;;10.73;;
10381;SDS011;11635;53.636;10.120;2023-03-01T07:08:22;16.85;;;10.55;;
10381;SDS011;11635;53.636;10.120;2023-03-01T07:10:54;14.75;;;11.40;;
10381;SDS011;11635;53.636;10.120;2023-03-01T07:13:20;14.95;;;11.02;;
10381;SDS011;11635;53.636;10.120;2023-03-01T07:15:47;14.75;;;10.75;;
10381;SDS011;11635;53.636;10.120;2023-03-01T07:18:13;16.35;;;10.75;;
10381;SDS011;11635;53.636;10.120;2023-03-01T07:20:40;13.90;;;10.82;;
10381;SDS011;11635;53.636;10.120;2023-03-01T07:23:07;17.75;;;12.00;;
10381;SDS011;11635;53.636;10.120;2023-03-01T07:25:35;13.73;;;10.25;;
10381;SDS011;11635;53.636;10.120;2023-03-01T07:28:01;17.20;;;11.10;;
10381;SDS011;11635;53.636;10.120;2023-03-01T07:30:28;15.93;;;10.18;;
10381;SDS011;11635;53.636;10.120;2023-03-01T07:32:54;15.75;;;11.13;;
10381;SDS011;11635;53.636;10.120;2023-03-01T07:35:21;16.08;;;9.98;;
10381;SDS011;11635;53.636;10.120;2023-03-01T07:37:47;18.58;;;10.45;;
10381;SDS011;11635;53.636;10.120;2023-03-01T07:40:14;16.48;;;9.73;;
10381;SDS011;11635;53.636;10.120;2023-03-01T07:42:42;14.65;;;9.88;;
10381;SDS011;11635;53.636;10.120;2023-03-01T07:45:09;15.60;;;10.05;;
10381;SDS011;11635;53.636;10.120;2023-03-01T07:47:35;17.00;;;10.85;;
10381;SDS011;11635;53.636;10.120;2023-03-01T07:50:02;16.15;;;9.60;;
10381;SDS011;11635;53.636;10.120;2023-03-01T07:52:29;14.45;;;9.75;;
10381;SDS011;11635;53.636;10.120;2023-03-01T07:54:55;18.45;;;10.80;;
10381;SDS011;11635;53.636;10.120;2023-03-01T07:57:22;17.90;;;10.50;;
10381;SDS011;11635;53.636;10.120;2023-03-01T07:59:50;17.98;;;11.52;;
10381;SDS011;11635;53.636;10.120;2023-03-01T08:02:16;15.50;;;10.32;;
10381;SDS011;11635;53.636;10.120;2023-03-01T08:04:43;14.57;;;10.02;;
10381;SDS011;11635;53.636;10.120;2023-03-01T08:07:10;14.38;;;10.88;;
10381;SDS011;11635;53.636;10.120;2023-03-01T08:09:36;15.52;;;10.60;;
10381;SDS011;11635;53.636;10.120;2023-03-01T08:12:03;14.93;;;11.18;;
10381;SDS011;11635;53.636;10.120;2023-03-01T08:14:29;13.63;;;10.48;;
10381;SDS011;11635;53.636;10.120;2023-03-01T08:16:57;16.33;;;11.65;;
10381;SDS011;11635;53.636;10.120;2023-03-01T08:19:24;12.98;;;10.13;;
10381;SDS011;11635;53.636;10.120;2023-03-01T08:21:50;18.63;;;11.80;;
10381;SDS011;11635;53.636;10.120;2023-03-01T08:24:17;15.70;;;10.95;;
10381;SDS011;11635;53.636;10.120;2023-03-01T08:26:43;14.60;;;10.35;;
10381;SDS011;11635;53.636;10.120;2023-03-01T08:29:12;15.02;;;11.13;;
10381;SDS011;11635;53.636;10.120;2023-03-01T08:31:38;15.50;;;11.95;;
10381;SDS011;11635;53.636;10.120;2023-03-01T08:34:07;20.08;;;12.38;;
10381;SDS011;11635;53.636;10.120;2023-03-01T08:36:35;16.70;;;12.43;;
10381;SDS011;11635;53.636;10.120;2023-03-01T08:39:02;22.98;;;14.00;;
10381;SDS011;11635;53.636;10.120;2023-03-01T08:41:28;16.38;;;11.30;;
10381;SDS011;11635;53.636;10.120;2023-03-01T08:43:55;17.40;;;12.02;;
10381;SDS011;11635;53.636;10.120;2023-03-01T08:46:23;18.48;;;12.65;;
10381;SDS011;11635;53.636;10.120;2023-03-01T08:48:50;18.95;;;13.20;;
10381;SDS011;11635;53.636;10.120;2023-03-01T08:51:18;16.70;;;11.60;;
10381;SDS011;11635;53.636;10.120;2023-03-01T08:53:45;18.35;;;13.70;;
10381;SDS011;11635;53.636;10.120;2023-03-01T08:56:12;17.27;;;12.05;;
10381;SDS011;11635;53.636;10.120;2023-03-01T08:58:38;16.42;;;11.70;;
10381;SDS011;11635;53.636;10.120;2023-03-01T09:01:08;18.77;;;11.88;;
10381;SDS011;11635;53.636;10.120;2023-03-01T09:03:35;18.27;;;12.20;;
10381;SDS011;11635;53.636;10.120;2023-03-01T09:06:02;14.90;;;10.57;;
10381;SDS011;11635;53.636;10.120;2023-03-01T09:08:30;16.80;;;11.20;;
10381;SDS011;11635;53.636;10.120;2023-03-01T09:10:57;15.88;;;11.45;;
10381;SDS011;11635;53.636;10.120;2023-03-01T09:13:23;13.38;;;11.20;;
10381;SDS011;11635;53.636;10.120;2023-03-01T09:15:50;18.05;;;11.55;;
10381;SDS011;11635;53.636;10.120;2023-03-01T09:18:17;15.40;;;12.15;;
10381;SDS011;11635;53.636;10.120;2023-03-01T09:20:44;15.40;;;12.20;;
10381;SDS011;11635;53.636;10.120;2023-03-01T09:23:10;16.55;;;11.85;;
10381;SDS011;11635;53.636;10.120;2023-03-01T09:25:38;13.60;;;10.35;;
10381;SDS011;11635;53.636;10.120;2023-03-01T09:28:05;16.52;;;11.68;;
10381;SDS011;11635;53.636;10.120;2023-03-01T09:30:31;15.05;;;11.43;;
10381;SDS011;11635;53.636;10.120;2023-03-01T09:32:58;19.45;;;11.93;;
10381;SDS011;11635;53.636;10.120;2023-03-01T09:35:24;18.85;;;11.10;;
10381;SDS011;11635;53.636;10.120;2023-03-01T09:37:51;16.02;;;11.02;;
10381;SDS011;11635;53.636;10.120;2023-03-01T09:40:18;14.60;;;10.98;;
10381;SDS011;11635;53.636;10.120;2023-03-01T09:42:48;13.93;;;10.75;;
10381;SDS011;11635;53.636;10.120;2023-03-01T09:45:19;15.45;;;11.45;;
10381;SDS011;11635;53.636;10.120;2023-03-01T09:47:47;14.30;;;12.10;;
10381;SDS011;11635;53.636;10.120;2023-03-01T09:50:14;13.63;;;10.75;;
10381;SDS011;11635;53.636;10.120;2023-03-01T09:52:42;14.00;;;10.85;;
10381;SDS011;11635;53.636;10.120;2023-03-01T09:55:11;20.17;;;11.77;;
10381;SDS011;11635;53.636;10.120;2023-03-01T09:57:39;14.50;;;11.30;;
10381;SDS011;11635;53.636;10.120;2023-03-01T10:00:12;18.25;;;10.25;;
10381;SDS011;11635;53.636;10.120;2023-03-01T10:02:41;16.13;;;10.98;;
10381;SDS011;11635;53.636;10.120;2023-03-01T10:05:28;13.43;;;10.57;;
10381;SDS011;11635;53.636;10.120;2023-03-01T10:08:00;13.32;;;10.18;;
10381;SDS011;11635;53.636;10.120;2023-03-01T10:10:30;12.95;;;9.65;;
10381;SDS011;11635;53.636;10.120;2023-03-01T10:12:58;31.63;;;18.92;;
10381;SDS011;11635;53.636;10.120;2023-03-01T10:15:39;25.73;;;15.98;;
10381;SDS011;11635;53.636;10.120;2023-03-01T10:18:09;16.77;;;11.48;;
10381;SDS011;11635;53.636;10.120;2023-03-01T10:20:42;11.55;;;8.30;;
10381;SDS011;11635;53.636;10.120;2023-03-01T10:23:09;15.65;;;9.43;;
10381;SDS011;11635;53.636;10.120;2023-03-01T10:25:42;11.75;;;8.63;;
10381;SDS011;11635;53.636;10.120;2023-03-01T10:28:13;12.82;;;9.90;;
10381;SDS011;11635;53.636;10.120;2023-03-01T10:30:43;9.90;;;8.32;;
10381;SDS011;11635;53.636;10.120;2023-03-01T10:33:13;13.13;;;9.32;;
10381;SDS011;11635;53.636;10.120;2023-03-01T10:35:41;10.63;;;8.52;;
10381;SDS011;11635;53.636;10.120;2023-03-01T10:38:08;11.85;;;9.18;;
10381;SDS011;11635;53.636;10.120;2023-03-01T10:40:35;13.27;;;9.10;;
10381;SDS011;11635;53.636;10.120;2023-03-01T10:43:02;12.57;;;9.35;;
10381;SDS011;11635;53.636;10.120;2023-03-01T10:45:31;13.52;;;9.70;;
10381;SDS011;11635;53.636;10.120;2023-03-01T10:48:04;11.20;;;8.93;;
10381;SDS011;11635;53.636;10.120;2023-03-01T10:50:31;12.10;;;9.80;;
10381;SDS011;11635;53.636;10.120;2023-03-01T10:52:59;13.95;;;9.93;;
10381;SDS011;11635;53.636;10.120;2023-03-01T10:55:26;12.52;;;9.20;;
10381;SDS011;11635;53.636;10.120;2023-03-01T10:58:08;15.02;;;9.70;;
10381;SDS011;11635;53.636;10.120;2023-03-01T11:00:45;15.20;;;9.75;;
10381;SDS011;11635;53.636;10.120;2023-03-01T11:03:14;11.13;;;8.75;;
10381;SDS011;11635;53.636;10.120;2023-03-01T11:05:51;11.70;;;9.35;;
10381;SDS011;11635;53.636;10.120;2023-03-01T11:08:29;13.35;;;9.38;;
10381;SDS011;11635;53.636;10.120;2023-03-01T11:11:03;14.90;;;9.35;;
10381;SDS011;11635;53.636;10.120;2023-03-01T11:13:30;11.70;;;8.48;;
10381;SDS011;11635;53.636;10.120;2023-03-01T11:15:58;10.55;;;8.57;;
10381;SDS011;11635;53.636;10.120;2023-03-01T11:18:26;9.40;;;8.18;;
10381;SDS011;11635;53.636;10.120;2023-03-01T11:20:55;9.57;;;7.60;;
10381;SDS011;11635;53.636;10.120;2023-03-01T11:23:21;10.90;;;7.45;;
10381;SDS011;11635;53.636;10.120;2023-03-01T11:25:49;8.80;;;7.20;;
10381;SDS011;11635;53.636;10.120;2023-03-01T11:28:18;8.48;;;6.53;;
10381;SDS011;11635;53.636;10.120;2023-03-01T11:30:47;7.80;;;6.03;;
10381;SDS011;11635;53.636;10.120;2023-03-01T11:33:16;6.82;;;4.75;;
10381;SDS011;11635;53.636;10.120;2023-03-01T11:35:46;6.30;;;4.40;;
10381;SDS011;11635;53.636;10.120;2023-03-01T11:38:16;6.43;;;4.40;;
10381;SDS011;11635;53.636;10.120;2023-03-01T11:40:45;6.32;;;4.85;;
10381;SDS011;11635;53.636;10.120;2023-03-01T11:43:15;6.25;;;4.78;;
10381;SDS011;11635;53.636;10.120;2023-03-01T11:45:47;7.03;;;4.97;;
10381;SDS011;11635;53.636;10.120;2023-03-01T11:51:02;5.22;;;4.45;;
10381;SDS011;11635;53.636;10.120;2023-03-01T11:53:40;8.25;;;6.00;;
10381;SDS011;11635;53.636;10.120;2023-03-01T11:56:16;5.75;;;4.90;;
10381;SDS011;11635;53.636;10.120;2023-03-01T12:01:48;5.75;;;4.72;;
10381;SDS011;11635;53.636;10.120;2023-03-01T12:04:36;7.00;;;5.38;;
10381;SDS011;11635;53.636;10.120;2023-03-01T12:07:11;7.32;;;5.63;;
10381;SDS011;11635;53.636;10.120;2023-03-01T12:09:44;7.25;;;4.97;;
10381;SDS011;11635;53.636;10.120;2023-03-01T12:12:21;5.30;;;4.72;;
10381;SDS011;11635;53.636;10.120;2023-03-01T12:14:53;7.18;;;5.07;;
10381;SDS011;11635;53.636;10.120;2023-03-01T12:17:33;5.72;;;4.80;;
10381;SDS011;11635;53.636;10.120;2023-03-01T12:20:10;6.75;;;4.80;;
10381;SDS011;11635;53.636;10.120;2023-03-01T12:22:43;9.65;;;4.72;;
10381;SDS011;11635;53.636;10.120;2023-03-01T12:25:16;7.07;;;5.65;;
10381;SDS011;11635;53.636;10.120;2023-03-01T12:30:33;6.15;;;5.20;;
10381;SDS011;11635;53.636;10.120;2023-03-01T12:33:05;5.78;;;4.43;;
10381;SDS011;11635;53.636;10.120;2023-03-01T12:35:36;7.00;;;4.70;;
10381;SDS011;11635;53.636;10.120;2023-03-01T12:38:08;7.78;;;5.00;;
10381;SDS011;11635;53.636;10.120;2023-03-01T12:40:46;5.30;;;4.25;;
10381;SDS011;11635;53.636;10.120;2023-03-01T12:43:21;5.18;;;3.95;;
10381;SDS011;11635;53.636;10.120;2023-03-01T12:45:54;6.40;;;4.45;;
10381;SDS011;11635;53.636;10.120;2023-03-01T12:48:26;5.53;;;4.78;;
10381;SDS011;11635;53.636;10.120;2023-03-01T12:50:57;4.80;;;4.28;;
10381;SDS011;11635;53.636;10.120;2023-03-01T12:53:28;6.07;;;5.05;;
10381;SDS011;11635;53.636;10.120;2023-03-01T12:55:56;6.40;;;4.95;;
10381;SDS011;11635;53.636;10.120;2023-03-01T12:58:27;8.45;;;4.97;;
10381;SDS011;11635;53.636;10.120;2023-03-01T13:01:04;6.93;;;4.63;;
10381;SDS011;11635;53.636;10.120;2023-03-01T13:03:40;6.03;;;4.65;;
10381;SDS011;11635;53.636;10.120;2023-03-01T13:06:12;5.28;;;4.40;;
10381;SDS011;11635;53.636;10.120;2023-03-01T13:08:44;5.95;;;4.35;;
10381;SDS011;11635;53.636;10.120;2023-03-01T13:11:15;5.38;;;3.80;;
10381;SDS011;11635;53.636;10.120;2023-03-01T13:13:42;5.90;;;4.05;;
10381;SDS011;11635;53.636;10.120;2023-03-01T13:16:20;5.35;;;3.60;;
10381;SDS011;11635;53.636;10.120;2023-03-01T13:18:47;6.78;;;5.30;;
10381;SDS011;11635;53.636;10.120;2023-03-01T13:21:13;4.47;;;3.47;;
10381;SDS011;11635;53.636;10.120;2023-03-01T13:23:56;5.05;;;3.65;;
10381;SDS011;11635;53.636;10.120;2023-03-01T13:26:23;6.07;;;4.13;;
10381;SDS011;11635;53.636;10.120;2023-03-01T13:28:54;6.18;;;4.80;;
10381;SDS011;11635;53.636;10.120;2023-03-01T13:34:07;8.48;;;5.15;;
10381;SDS011;11635;53.636;10.120;2023-03-01T13:36:54;6.13;;;4.22;;
10381;SDS011;11635;53.636;10.120;2023-03-01T13:39:39;5.65;;;5.05;;
10381;SDS011;11635;53.636;10.120;2023-03-01T13:44:48;6.03;;;4.75;;
10381;SDS011;11635;53.636;10.120;2023-03-01T13:47:16;7.75;;;4.22;;
10381;SDS011;11635;53.636;10.120;2023-03-01T13:49:45;5.47;;;3.45;;
10381;SDS011;11635;53.636;10.120;2023-03-01T13:52:21;5.00;;;3.92;;
10381;SDS011;11635;53.636;10.120;2023-03-01T13:54:54;4.40;;;3.30;;
10381;SDS011;11635;53.636;10.120;2023-03-01T13:57:33;4.60;;;2.80;;
10381;SDS011;11635;53.636;10.120;2023-03-01T14:00:00;4.57;;;3.35;;
10381;SDS011;11635;53.636;10.120;2023-03-01T14:02:27;5.18;;;3.50;;
10381;SDS011;11635;53.636;10.120;2023-03-01T14:04:58;7.95;;;4.47;;
10381;SDS011;11635;53.636;10.120;2023-03-01T14:07:25;4.57;;;3.63;;
10381;SDS011;11635;53.636;10.120;2023-03-01T14:09:56;5.13;;;3.72;;
10381;SDS011;11635;53.636;10.120;2023-03-01T14:12:26;4.50;;;3.50;;
10381;SDS011;11635;53.636;10.120;2023-03-01T14:14:59;4.75;;;4.00;;
10381;SDS011;11635;53.636;10.120;2023-03-01T14:20:14;4.43;;;4.03;;
10381;SDS011;11635;53.636;10.120;2023-03-01T14:22:43;4.72;;;4.20;;
10381;SDS011;11635;53.636;10.120;2023-03-01T14:25:19;6.05;;;4.00;;
10381;SDS011;11635;53.636;10.120;2023-03-01T14:27:50;4.40;;;3.75;;
10381;SDS011;11635;53.636;10.120;2023-03-01T14:30:19;5.00;;;3.30;;
10381;SDS011;11635;53.636;10.120;2023-03-01T14:32:52;3.50;;;3.20;;
10381;SDS011;11635;53.636;10.120;2023-03-01T14:35:19;4.25;;;3.28;;
10381;SDS011;11635;53.636;10.120;2023-03-01T14:37:46;3.28;;;2.60;;
10381;SDS011;11635;53.636;10.120;2023-03-01T14:40:21;3.00;;;2.60;;
10381;SDS011;11635;53.636;10.120;2023-03-01T14:42:48;4.00;;;3.33;;
10381;SDS011;11635;53.636;10.120;2023-03-01T14:45:14;4.22;;;3.08;;
10381;SDS011;11635;53.636;10.120;2023-03-01T14:47:43;4.40;;;3.20;;